createdAt,value
2023-04-30T00:01:28.519Z,22.65
2023-04-30T00:03:56.415Z,22.45
2023-04-30T00:06:25.499Z,17.23
2023-04-30T00:08:53.669Z,21.70
2023-04-30T00:11:21.776Z,18.50
2023-04-30T00:13:49.914Z,19.65
2023-04-30T00:16:21.113Z,18.87
2023-04-30T00:18:48.855Z,18.90
2023-04-30T00:21:16.316Z,20.45
2023-04-30T00:23:44.142Z,19.25
2023-04-30T00:26:11.985Z,19.05
2023-04-30T00:28:39.883Z,20.70
2023-04-30T00:31:10.210Z,20.75
2023-04-30T00:33:37.733Z,19.40
2023-04-30T00:36:06.096Z,24.72
2023-04-30T00:38:33.762Z,25.12
2023-04-30T00:41:01.939Z,19.42
2023-04-30T00:43:29.258Z,18.92
2023-04-30T00:45:57.165Z,18.67
2023-04-30T00:48:26.651Z,25.12
2023-04-30T00:51:03.471Z,21.17
2023-04-30T00:53:35.550Z,21.55
2023-04-30T00:56:03.454Z,22.62
2023-04-30T00:58:31.570Z,18.70
2023-04-30T01:00:59.639Z,22.40
2023-04-30T01:03:29.383Z,21.75
2023-04-30T01:05:57.304Z,20.85
2023-04-30T01:08:25.395Z,20.48
2023-04-30T01:10:58.162Z,21.60
2023-04-30T01:13:32.100Z,19.00
2023-04-30T01:16:07.186Z,18.77
2023-04-30T01:18:38.745Z,21.45
2023-04-30T01:21:08.065Z,19.75
2023-04-30T01:23:57.361Z,21.27
2023-04-30T01:26:51.918Z,18.40
2023-04-30T01:29:21.286Z,20.00
2023-04-30T01:31:49.101Z,20.70
2023-04-30T01:34:16.988Z,20.50
2023-04-30T01:37:03.395Z,20.55
2023-04-30T01:39:41.354Z,19.20
2023-04-30T01:42:15.796Z,20.90
2023-04-30T01:45:11.313Z,20.68
2023-04-30T01:47:51.529Z,20.95
2023-04-30T01:50:26.006Z,17.65
2023-04-30T01:52:57.364Z,18.37
2023-04-30T01:55:28.978Z,17.67
2023-04-30T01:57:59.235Z,18.98
2023-04-30T02:00:28.926Z,19.85
2023-04-30T02:02:57.827Z,18.57
2023-04-30T02:05:25.883Z,19.37
2023-04-30T02:07:54.036Z,15.85
2023-04-30T02:10:25.061Z,17.77
2023-04-30T02:12:53.680Z,18.70
2023-04-30T02:15:21.508Z,18.23
2023-04-30T02:17:48.857Z,17.50
2023-04-30T02:20:16.429Z,20.97
2023-04-30T02:22:43.870Z,20.48
2023-04-30T02:25:12.986Z,17.32
2023-04-30T02:27:40.955Z,17.23
2023-04-30T02:30:10.285Z,15.05
2023-04-30T02:32:37.912Z,16.85
2023-04-30T02:35:06.696Z,17.95
2023-04-30T02:37:34.230Z,18.05
2023-04-30T02:40:02.847Z,18.48
2023-04-30T02:42:30.371Z,16.93
2023-04-30T02:44:57.946Z,17.25
2023-04-30T02:47:25.704Z,22.40
2023-04-30T02:49:56.856Z,16.10
2023-04-30T02:52:25.108Z,19.20
2023-04-30T02:54:52.633Z,20.27
2023-04-30T02:57:20.440Z,19.07
2023-04-30T02:59:48.789Z,18.55
2023-04-30T03:02:18.013Z,22.25
2023-04-30T03:04:46.949Z,16.85
2023-04-30T03:07:14.350Z,18.75
2023-04-30T03:09:42.267Z,19.40
2023-04-30T03:12:10.104Z,21.73
2023-04-30T03:14:37.916Z,20.25
2023-04-30T03:17:05.326Z,18.48
2023-04-30T03:19:37.285Z,19.65
2023-04-30T03:22:04.730Z,20.72
2023-04-30T03:24:32.116Z,27.48
2023-04-30T03:26:59.620Z,21.97
2023-04-30T03:29:28.429Z,24.45
2023-04-30T03:31:56.922Z,20.05
2023-04-30T03:34:24.680Z,25.30
2023-04-30T03:36:53.102Z,21.40
2023-04-30T03:39:20.725Z,20.75
2023-04-30T03:41:48.915Z,22.13
2023-04-30T03:44:17.738Z,20.15
2023-04-30T03:46:45.906Z,19.25
2023-04-30T03:49:16.391Z,19.23
2023-04-30T03:51:44.826Z,21.20
2023-04-30T03:54:13.048Z,20.05
2023-04-30T03:56:41.491Z,20.75
2023-04-30T03:59:09.083Z,24.35
2023-04-30T04:01:36.713Z,18.45
2023-04-30T04:04:04.242Z,19.73
2023-04-30T04:06:33.192Z,20.97
2023-04-30T04:09:00.689Z,20.30
2023-04-30T04:11:28.350Z,20.35
2023-04-30T04:13:56.412Z,22.75
2023-04-30T04:16:24.319Z,21.02
2023-04-30T04:18:52.750Z,20.95
2023-04-30T04:21:21.065Z,20.85
2023-04-30T04:23:48.987Z,18.67
2023-04-30T04:26:18.945Z,20.85
2023-04-30T04:28:48.206Z,19.73
2023-04-30T04:31:16.129Z,19.73
2023-04-30T04:33:43.723Z,24.55
2023-04-30T04:36:12.939Z,23.00
2023-04-30T04:38:41.407Z,19.27
2023-04-30T04:41:09.932Z,20.15
2023-04-30T04:43:37.756Z,20.50
2023-04-30T04:46:09.864Z,20.57
2023-04-30T04:48:38.508Z,21.65
2023-04-30T04:51:09.652Z,20.72
2023-04-30T04:53:37.002Z,23.40
2023-04-30T04:56:05.232Z,25.50
2023-04-30T04:58:32.975Z,21.30
2023-04-30T05:01:00.538Z,24.32
2023-04-30T05:03:29.673Z,20.85
2023-04-30T05:05:57.325Z,24.12
2023-04-30T05:08:25.035Z,21.45
2023-04-30T05:10:53.952Z,19.87
2023-04-30T05:13:21.449Z,25.00
2023-04-30T05:15:53.502Z,23.55
2023-04-30T05:18:21.311Z,23.00
2023-04-30T05:21:02.865Z,19.00
2023-04-30T05:23:30.934Z,25.00
2023-04-30T05:25:58.451Z,22.22
2023-04-30T05:28:26.086Z,21.52
2023-04-30T05:30:53.556Z,24.10
2023-04-30T05:33:21.606Z,23.90
2023-04-30T05:35:49.660Z,21.75
2023-04-30T05:38:17.477Z,19.90
2023-04-30T05:40:45.318Z,21.27
2023-04-30T05:43:13.588Z,20.77
2023-04-30T05:45:41.473Z,17.75
2023-04-30T05:48:09.923Z,16.95
2023-04-30T05:50:37.698Z,18.77
2023-04-30T05:53:06.104Z,22.75
2023-04-30T05:55:34.970Z,19.90
2023-04-30T05:58:02.528Z,24.90
2023-04-30T06:00:31.551Z,19.27
2023-04-30T06:03:00.198Z,18.48
2023-04-30T06:05:28.025Z,22.02
2023-04-30T06:07:56.590Z,23.55
2023-04-30T06:10:24.398Z,21.20
2023-04-30T06:12:52.205Z,18.48
2023-04-30T06:15:20.157Z,19.50
2023-04-30T06:17:47.819Z,22.45
2023-04-30T06:20:16.216Z,20.02
2023-04-30T06:22:44.072Z,20.52
2023-04-30T06:25:11.731Z,21.82
2023-04-30T06:27:39.144Z,24.25
2023-04-30T06:30:08.136Z,20.20
2023-04-30T06:32:39.360Z,20.23
2023-04-30T06:35:08.007Z,19.37
2023-04-30T06:37:40.457Z,23.22
2023-04-30T06:40:09.080Z,22.32
2023-04-30T06:42:38.910Z,20.62
2023-04-30T06:45:07.677Z,21.27
2023-04-30T06:47:38.427Z,21.07
2023-04-30T06:50:07.086Z,21.48
2023-04-30T06:52:35.226Z,20.68
2023-04-30T06:55:03.700Z,22.67
2023-04-30T06:57:32.382Z,22.50
2023-04-30T07:00:00.709Z,23.00
2023-04-30T07:02:28.090Z,24.82
2023-04-30T07:04:55.651Z,19.25
2023-04-30T07:07:23.511Z,22.60
2023-04-30T07:09:51.918Z,23.00
2023-04-30T07:12:20.992Z,21.57
2023-04-30T07:14:48.963Z,20.95
2023-04-30T07:17:18.025Z,21.52
2023-04-30T07:19:45.892Z,25.70
2023-04-30T07:22:14.539Z,20.57
2023-04-30T07:24:42.056Z,20.68
2023-04-30T07:27:13.176Z,19.92
2023-04-30T07:29:41.664Z,22.67
2023-04-30T07:32:09.256Z,20.88
2023-04-30T07:34:37.397Z,19.90
2023-04-30T07:37:05.361Z,20.97
2023-04-30T07:39:32.932Z,16.82
2023-04-30T07:42:02.432Z,18.20
2023-04-30T07:44:31.484Z,15.45
2023-04-30T07:46:59.194Z,18.55
2023-04-30T07:49:27.312Z,13.70
2023-04-30T07:51:55.037Z,14.63
2023-04-30T07:54:23.960Z,13.15
2023-04-30T07:56:51.966Z,14.95
2023-04-30T07:59:22.528Z,15.95
2023-04-30T08:01:51.230Z,14.45
2023-04-30T08:04:19.138Z,11.75
2023-04-30T08:06:47.265Z,14.58
2023-04-30T08:09:16.089Z,12.13
2023-04-30T08:11:44.104Z,21.52
2023-04-30T08:14:15.482Z,12.30
2023-04-30T08:16:43.123Z,12.43
2023-04-30T08:19:11.248Z,14.18
2023-04-30T08:21:42.213Z,15.32
2023-04-30T08:24:10.432Z,12.20
2023-04-30T08:26:38.578Z,11.30
2023-04-30T08:29:08.318Z,12.70
2023-04-30T08:31:39.338Z,12.73
2023-04-30T08:34:07.152Z,10.05
2023-04-30T08:36:35.180Z,13.38
2023-04-30T08:39:03.889Z,12.28
2023-04-30T08:41:36.438Z,13.30
2023-04-30T08:44:08.555Z,9.78
2023-04-30T08:46:38.765Z,9.08
2023-04-30T08:49:06.532Z,6.78
2023-04-30T08:51:36.366Z,10.32
2023-04-30T08:54:04.407Z,6.78
2023-04-30T08:56:33.813Z,7.47
2023-04-30T08:59:02.465Z,11.55
2023-04-30T09:01:31.311Z,5.15
2023-04-30T09:03:59.341Z,4.60
2023-04-30T09:06:27.607Z,10.25
2023-04-30T09:08:56.128Z,3.47
2023-04-30T09:11:27.219Z,5.92
2023-04-30T09:14:03.283Z,4.40
2023-04-30T09:16:41.067Z,3.60
2023-04-30T09:19:08.576Z,2.90
2023-04-30T09:21:37.884Z,2.22
2023-04-30T09:24:06.646Z,2.52
2023-04-30T09:26:37.337Z,4.95
2023-04-30T09:29:10.264Z,4.95
2023-04-30T09:31:40.716Z,3.75
2023-04-30T09:34:08.463Z,1.80
2023-04-30T09:36:36.852Z,3.30
2023-04-30T09:39:14.901Z,2.35
2023-04-30T09:41:43.473Z,3.25
2023-04-30T09:44:29.750Z,2.90
2023-04-30T09:46:58.695Z,2.67
2023-04-30T09:49:27.724Z,1.95
2023-04-30T09:52:00.488Z,5.55
2023-04-30T09:54:30.181Z,3.75
2023-04-30T09:57:02.076Z,2.05
2023-04-30T09:59:32.407Z,3.75
2023-04-30T10:02:05.460Z,4.00
2023-04-30T10:04:42.138Z,2.58
2023-04-30T10:07:17.580Z,5.15
2023-04-30T10:09:58.516Z,2.37
2023-04-30T10:12:30.558Z,1.67
2023-04-30T10:15:02.292Z,3.27
2023-04-30T10:17:33.741Z,4.17
2023-04-30T10:20:08.462Z,2.17
2023-04-30T10:22:37.684Z,3.15
2023-04-30T10:25:10.112Z,1.27
2023-04-30T10:27:38.637Z,1.90
2023-04-30T10:30:10.759Z,2.17
2023-04-30T10:32:48.175Z,2.22
2023-04-30T10:35:25.599Z,1.47
2023-04-30T10:38:00.143Z,3.10
2023-04-30T10:40:29.679Z,5.47
2023-04-30T10:42:59.599Z,4.83
2023-04-30T10:45:39.531Z,4.35
2023-04-30T10:48:08.831Z,3.55
2023-04-30T10:50:48.399Z,4.10
2023-04-30T10:53:27.340Z,1.57
2023-04-30T10:56:01.547Z,2.08
2023-04-30T10:58:34.824Z,1.60
2023-04-30T11:01:15.153Z,1.52
2023-04-30T11:03:45.954Z,2.22
2023-04-30T11:06:15.684Z,2.20
2023-04-30T11:08:46.204Z,4.25
2023-04-30T11:11:23.151Z,6.10
2023-04-30T11:14:02.093Z,3.25
2023-04-30T11:16:39.096Z,6.00
2023-04-30T11:19:11.421Z,5.92
2023-04-30T11:21:45.114Z,6.30
2023-04-30T11:24:14.530Z,2.92
2023-04-30T11:27:04.713Z,2.42
2023-04-30T11:29:33.590Z,1.67
2023-04-30T11:32:02.398Z,1.95
2023-04-30T11:34:31.744Z,2.90
2023-04-30T11:37:01.395Z,4.17
2023-04-30T11:39:30.429Z,2.75
2023-04-30T11:42:01.108Z,1.98
2023-04-30T11:44:28.850Z,3.05
2023-04-30T11:46:57.201Z,1.95
2023-04-30T11:49:28.385Z,2.85
2023-04-30T11:51:57.427Z,2.00
2023-04-30T11:54:25.008Z,1.95
2023-04-30T11:56:53.267Z,1.30
2023-04-30T11:59:21.681Z,1.00
2023-04-30T12:01:51.594Z,1.62
2023-04-30T12:04:19.632Z,1.72
2023-04-30T12:06:47.980Z,2.02
2023-04-30T12:09:15.648Z,1.05
2023-04-30T12:11:50.369Z,2.77
2023-04-30T12:14:18.392Z,2.47
2023-04-30T12:16:51.855Z,1.72
2023-04-30T12:19:22.120Z,3.70
2023-04-30T12:21:50.552Z,2.20
2023-04-30T12:24:19.982Z,1.55
2023-04-30T12:26:48.542Z,1.55
2023-04-30T12:29:19.112Z,1.10
2023-04-30T12:31:52.808Z,1.10
2023-04-30T12:34:20.797Z,2.42
2023-04-30T12:36:48.611Z,4.00
2023-04-30T12:39:16.802Z,2.08
2023-04-30T12:41:49.810Z,3.02
2023-04-30T12:44:23.799Z,1.65
2023-04-30T12:46:57.593Z,3.80
2023-04-30T12:49:30.596Z,6.47
2023-04-30T12:52:01.436Z,3.25
2023-04-30T12:54:30.388Z,1.92
2023-04-30T12:57:03.856Z,4.22
2023-04-30T12:59:34.597Z,2.20
2023-04-30T13:02:15.024Z,1.77
2023-04-30T13:04:45.593Z,1.50
2023-04-30T13:07:13.619Z,1.25
2023-04-30T13:09:41.179Z,0.85
2023-04-30T13:12:09.528Z,2.12
2023-04-30T13:14:37.489Z,1.60
2023-04-30T13:17:07.121Z,1.20
2023-04-30T13:19:35.969Z,1.80
2023-04-30T13:22:04.070Z,3.65
2023-04-30T13:24:31.585Z,0.80
2023-04-30T13:27:00.045Z,1.10
2023-04-30T13:29:28.314Z,1.92
2023-04-30T13:31:56.225Z,1.12
2023-04-30T13:34:24.250Z,1.60
2023-04-30T13:36:53.719Z,1.42
2023-04-30T13:39:22.228Z,4.65
2023-04-30T13:41:50.057Z,1.85
2023-04-30T13:44:18.581Z,2.00
2023-04-30T13:46:45.812Z,1.67
2023-04-30T13:49:14.685Z,1.22
2023-04-30T13:51:42.351Z,1.30
2023-04-30T13:54:10.027Z,3.00
2023-04-30T13:56:38.595Z,1.87
2023-04-30T13:59:07.341Z,1.32
2023-04-30T14:01:35.471Z,1.62
2023-04-30T14:04:03.115Z,0.93
2023-04-30T14:06:32.330Z,0.90
2023-04-30T14:09:03.975Z,1.27
2023-04-30T14:11:31.506Z,2.52
2023-04-30T14:13:59.542Z,2.12
2023-04-30T14:16:27.654Z,1.85
2023-04-30T14:18:55.521Z,1.20
2023-04-30T14:21:23.863Z,2.62
2023-04-30T14:23:52.623Z,1.98
2023-04-30T14:26:20.663Z,0.72
2023-04-30T14:28:48.443Z,1.50
2023-04-30T14:31:16.154Z,1.27
2023-04-30T14:33:44.075Z,1.45
2023-04-30T14:36:12.592Z,2.50
2023-04-30T14:38:40.638Z,0.70
2023-04-30T14:41:08.905Z,1.00
2023-04-30T14:43:36.978Z,0.60
2023-04-30T14:46:05.041Z,1.62
2023-04-30T14:48:33.785Z,1.00
2023-04-30T14:51:02.468Z,1.17
2023-04-30T14:53:30.847Z,1.75
2023-04-30T14:55:59.238Z,1.52
2023-04-30T14:58:27.865Z,1.60
2023-04-30T15:00:55.806Z,2.40
2023-04-30T15:03:23.556Z,1.65
2023-04-30T15:05:52.018Z,1.25
2023-04-30T15:08:19.771Z,1.12
2023-04-30T15:10:47.849Z,4.30
2023-04-30T15:13:17.808Z,1.72
2023-04-30T15:15:47.564Z,2.98
2023-04-30T15:18:16.151Z,1.87
2023-04-30T15:20:44.038Z,2.17
2023-04-30T15:23:15.656Z,2.60
2023-04-30T15:25:44.473Z,1.77
2023-04-30T15:28:12.939Z,3.15
2023-04-30T15:30:43.905Z,2.62
2023-04-30T15:33:15.763Z,4.28
2023-04-30T15:35:44.254Z,3.52
2023-04-30T15:38:11.991Z,4.70
2023-04-30T15:40:40.163Z,1.85
2023-04-30T15:43:08.204Z,3.55
2023-04-30T15:45:36.330Z,1.87
2023-04-30T15:48:04.488Z,2.85
2023-04-30T15:50:32.484Z,2.30
2023-04-30T15:53:00.190Z,2.10
2023-04-30T15:55:31.776Z,2.37
2023-04-30T15:58:00.236Z,4.50
2023-04-30T16:00:29.690Z,2.55
2023-04-30T16:02:57.909Z,5.12
2023-04-30T16:05:27.562Z,5.85
2023-04-30T16:07:55.350Z,4.33
2023-04-30T16:10:23.091Z,2.77
2023-04-30T16:12:50.946Z,3.30
2023-04-30T16:15:18.881Z,3.25
2023-04-30T16:17:46.728Z,2.72
2023-04-30T16:20:14.457Z,3.65
2023-04-30T16:22:42.718Z,4.28
2023-04-30T16:25:10.306Z,4.42
2023-04-30T16:27:38.236Z,4.30
2023-04-30T16:30:07.684Z,3.60
2023-04-30T16:32:36.660Z,2.85
2023-04-30T16:35:04.916Z,3.08
2023-04-30T16:37:33.123Z,3.60
2023-04-30T16:40:01.768Z,2.02
2023-04-30T16:42:30.251Z,5.33
2023-04-30T16:44:57.910Z,2.12
2023-04-30T16:47:26.032Z,3.60
2023-04-30T16:49:53.954Z,2.75
2023-04-30T16:52:25.629Z,2.27
2023-04-30T16:54:54.180Z,3.42
2023-04-30T16:57:25.474Z,3.60
2023-04-30T16:59:53.650Z,17.62
2023-04-30T17:02:24.950Z,2.55
2023-04-30T17:04:52.612Z,2.27
2023-04-30T17:07:21.490Z,2.45
2023-04-30T17:09:49.252Z,3.58
2023-04-30T17:12:17.078Z,4.65
2023-04-30T17:14:44.811Z,1.85
2023-04-30T17:17:12.911Z,1.75
2023-04-30T17:19:40.632Z,2.95
2023-04-30T17:22:09.559Z,2.20
2023-04-30T17:24:37.946Z,1.80
2023-04-30T17:27:06.129Z,2.00
2023-04-30T17:29:33.826Z,2.05
2023-04-30T17:32:01.600Z,1.70
2023-04-30T17:34:29.588Z,2.00
2023-04-30T17:36:59.432Z,2.87
2023-04-30T17:39:29.067Z,4.00
2023-04-30T17:41:57.483Z,1.85
2023-04-30T17:44:25.323Z,2.72
2023-04-30T17:46:53.043Z,2.00
2023-04-30T17:49:21.683Z,1.85
2023-04-30T17:51:49.396Z,1.70
2023-04-30T17:54:18.035Z,7.25
2023-04-30T17:56:46.464Z,10.78
2023-04-30T17:59:14.175Z,4.72
2023-04-30T18:01:45.352Z,4.37
2023-04-30T18:04:20.815Z,2.47
2023-04-30T18:06:49.001Z,1.70
2023-04-30T18:09:16.686Z,4.25
2023-04-30T18:11:45.309Z,2.65
2023-04-30T18:14:14.395Z,3.85
2023-04-30T18:16:45.473Z,2.27
2023-04-30T18:19:17.082Z,2.55
2023-04-30T18:21:44.430Z,3.02
2023-04-30T18:24:11.974Z,1.87
2023-04-30T18:26:39.888Z,2.30
2023-04-30T18:29:08.662Z,3.50
2023-04-30T18:31:37.758Z,2.50
2023-04-30T18:34:05.754Z,2.10
2023-04-30T18:36:33.885Z,2.72
2023-04-30T18:39:02.080Z,2.08
2023-04-30T18:41:29.634Z,1.52
2023-04-30T18:43:58.391Z,1.98
2023-04-30T18:46:29.552Z,4.25
2023-04-30T18:48:58.688Z,2.12
2023-04-30T18:51:26.835Z,2.62
2023-04-30T18:53:56.673Z,2.70
2023-04-30T18:56:24.679Z,3.55
2023-04-30T18:58:52.557Z,3.83
2023-04-30T19:01:21.823Z,3.90
2023-04-30T19:03:49.550Z,4.55
2023-04-30T19:06:20.641Z,3.67
2023-04-30T19:08:48.251Z,2.80
2023-04-30T19:11:19.513Z,3.42
2023-04-30T19:13:51.191Z,8.18
2023-04-30T19:16:19.173Z,2.10
2023-04-30T19:18:48.955Z,4.95
2023-04-30T19:21:17.007Z,3.20
2023-04-30T19:23:45.303Z,3.17
2023-04-30T19:26:13.039Z,2.80
2023-04-30T19:28:41.398Z,6.37
2023-04-30T19:31:09.280Z,19.57
2023-04-30T19:33:40.123Z,5.00
2023-04-30T19:36:07.983Z,5.85
2023-04-30T19:38:36.074Z,4.60
2023-04-30T19:41:03.922Z,7.33
2023-04-30T19:43:35.035Z,4.15
2023-04-30T19:46:03.465Z,4.15
2023-04-30T19:48:31.875Z,6.83
2023-04-30T19:51:04.076Z,3.45
2023-04-30T19:53:32.756Z,4.05
2023-04-30T19:56:00.501Z,3.20
2023-04-30T19:58:28.556Z,3.35
2023-04-30T20:00:56.630Z,3.42
2023-04-30T20:03:25.636Z,2.00
2023-04-30T20:05:53.644Z,2.40
2023-04-30T20:08:22.390Z,2.12
2023-04-30T20:10:50.327Z,2.45
2023-04-30T20:13:18.573Z,2.10
2023-04-30T20:15:46.656Z,4.85
2023-04-30T20:18:17.930Z,4.08
2023-04-30T20:20:46.749Z,2.22
2023-04-30T20:23:18.413Z,4.20
2023-04-30T20:25:46.889Z,4.30
2023-04-30T20:28:15.985Z,3.75
2023-04-30T20:30:44.044Z,2.00
2023-04-30T20:33:13.474Z,5.30
2023-04-30T20:35:44.182Z,5.45
2023-04-30T20:38:13.318Z,2.77
2023-04-30T20:40:42.126Z,3.10
2023-04-30T20:43:12.105Z,3.12
2023-04-30T20:45:41.196Z,2.10
2023-04-30T20:48:12.257Z,1.70
2023-04-30T20:50:41.509Z,1.67
2023-04-30T20:53:11.286Z,2.30
2023-04-30T20:55:41.932Z,2.58
2023-04-30T20:58:09.798Z,2.02
2023-04-30T21:00:38.142Z,2.75
2023-04-30T21:03:06.209Z,1.80
2023-04-30T21:05:34.995Z,3.95
2023-04-30T21:08:03.102Z,3.72
2023-04-30T21:10:33.046Z,2.62
2023-04-30T21:13:04.780Z,2.70
2023-04-30T21:15:35.283Z,2.45
2023-04-30T21:18:05.884Z,3.52
2023-04-30T21:20:33.628Z,4.70
2023-04-30T21:23:02.448Z,3.83
2023-04-30T21:25:30.407Z,2.10
2023-04-30T21:27:58.519Z,3.62
2023-04-30T21:30:26.937Z,1.65
2023-04-30T21:32:59.267Z,5.17
2023-04-30T21:35:33.256Z,1.92
2023-04-30T21:38:05.181Z,2.20
2023-04-30T21:43:20.368Z,2.52
2023-04-30T21:45:48.763Z,2.22
2023-04-30T21:48:20.471Z,2.75
2023-04-30T21:50:49.873Z,7.08
2023-04-30T21:53:18.734Z,1.72
2023-04-30T21:55:46.492Z,2.75
2023-04-30T21:58:16.721Z,4.03
2023-04-30T22:00:45.192Z,1.87
2023-04-30T22:03:15.648Z,2.05
2023-04-30T22:05:44.090Z,5.70
2023-04-30T22:08:11.618Z,2.85
2023-04-30T22:10:42.278Z,2.22
2023-04-30T22:13:09.680Z,2.37
2023-04-30T22:18:11.255Z,2.02
2023-04-30T22:20:42.814Z,2.35
2023-04-30T22:23:10.264Z,1.87
2023-04-30T22:25:38.352Z,1.57
2023-04-30T22:28:06.204Z,1.40
2023-04-30T22:30:34.013Z,1.65
2023-04-30T22:33:02.402Z,2.08
2023-04-30T22:35:31.332Z,3.90
2023-04-30T22:38:00.823Z,7.47
2023-04-30T22:40:28.675Z,2.65
2023-04-30T22:42:56.598Z,1.62
2023-04-30T22:45:24.668Z,2.05
2023-04-30T22:47:54.429Z,2.60
2023-04-30T22:50:22.021Z,2.22
2023-04-30T22:52:50.293Z,3.85
2023-04-30T22:55:18.645Z,1.67
2023-04-30T22:57:46.368Z,1.80
2023-04-30T23:00:15.615Z,2.02
2023-04-30T23:02:44.437Z,1.87
2023-04-30T23:05:12.947Z,3.40
2023-04-30T23:07:40.900Z,1.60
2023-04-30T23:10:12.250Z,2.65
2023-04-30T23:12:40.131Z,3.47
2023-04-30T23:15:08.262Z,2.27
2023-04-30T23:17:36.064Z,3.75
2023-04-30T23:20:04.617Z,2.12
2023-04-30T23:22:32.443Z,4.60
2023-04-30T23:25:00.477Z,3.75
2023-04-30T23:27:29.253Z,1.50
2023-04-30T23:29:57.799Z,1.92
2023-04-30T23:32:26.566Z,2.77
2023-04-30T23:34:54.674Z,1.47
2023-04-30T23:37:22.493Z,1.37
2023-04-30T23:39:49.942Z,1.25
2023-04-30T23:42:18.035Z,1.20
2023-04-30T23:44:45.838Z,1.32
2023-04-30T23:47:13.748Z,2.40
2023-04-30T23:49:42.600Z,2.90
2023-04-30T23:52:13.266Z,1.92
2023-04-30T23:54:42.053Z,1.27
2023-04-30T23:57:11.568Z,1.90
2023-04-30T23:59:39.801Z,3.00
